Time;durP1;ratioP1;P1;durP2;ratioP2;P2;SDS_P1;SDS_P2;PMS_P1;PMS_P2;Temp;Humidity;BMP_temperature;BMP_pressure;BME280_temperature;BME280_humidity;BME280_pressure;Samples;Min_cycle;Max_cycle;Signal;HPM_P1;HPM_P2
2021/08/14 00:00:51;;;;;;;8.27;6.40;;;19.40;93.20;;;;;;5096057;28;20103;-70
2021/08/14 00:03:17;;;;;;;12.57;6.85;;;19.40;93.30;;;;;;5095332;28;20107;-70
2021/08/14 00:05:42;;;;;;;10.60;6.35;;;19.40;93.30;;;;;;5095245;28;20081;-70
2021/08/14 00:08:08;;;;;;;9.35;6.65;;;19.30;93.30;;;;;;5095741;28;20035;-70
2021/08/14 00:10:34;;;;;;;10.65;6.68;;;19.30;93.30;;;;;;5095658;28;20034;-70
2021/08/14 00:13:00;;;;;;;8.57;6.22;;;19.20;93.30;;;;;;5095839;28;20043;-70
2021/08/14 00:15:26;;;;;;;8.88;7.00;;;19.20;93.40;;;;;;5094971;28;20107;-70
2021/08/14 00:17:51;;;;;;;10.02;7.00;;;19.20;93.40;;;;;;5095061;28;20028;-70
2021/08/14 00:20:17;;;;;;;11.57;7.28;;;19.10;93.40;;;;;;5095610;28;20027;-70
2021/08/14 00:22:43;;;;;;;12.23;7.15;;;19.10;93.50;;;;;;5095239;28;20024;-70
2021/08/14 00:25:09;;;;;;;10.85;6.75;;;19.10;93.60;;;;;;5094973;28;20024;-70
2021/08/14 00:27:35;;;;;;;10.38;7.10;;;19.00;93.60;;;;;;5095009;28;20126;-70
2021/08/14 00:30:01;;;;;;;8.77;6.55;;;19.00;93.60;;;;;;5094848;28;20055;-70
2021/08/14 00:32:26;;;;;;;10.25;7.43;;;19.00;93.70;;;;;;5095207;28;20032;-70
2021/08/14 00:34:52;;;;;;;9.88;6.75;;;19.00;93.70;;;;;;5095202;28;20106;-70
2021/08/14 00:37:18;;;;;;;12.63;7.60;;;19.00;93.90;;;;;;5094450;28;20043;-70
2021/08/14 00:39:43;;;;;;;14.45;7.25;;;18.90;93.90;;;;;;5094546;28;20024;-70
2021/08/14 00:42:09;;;;;;;9.80;7.10;;;18.90;93.90;;;;;;5094716;28;20077;-70
2021/08/14 00:44:35;;;;;;;10.15;7.18;;;18.90;93.90;;;;;;5095230;28;20055;-70
2021/08/14 00:47:05;;;;;;;11.35;6.85;;;18.90;94.00;;;;;;5095075;28;20024;-70
2021/08/14 00:49:30;;;;;;;9.98;6.97;;;18.90;94.10;;;;;;5094828;28;20024;-70
2021/08/14 00:51:56;;;;;;;12.63;7.40;;;18.80;94.10;;;;;;5094593;28;20028;-70
2021/08/14 00:54:22;;;;;;;9.93;7.20;;;18.80;94.10;;;;;;5094859;28;20443;-70
2021/08/14 00:56:48;;;;;;;10.50;7.03;;;18.80;94.10;;;;;;5094416;28;20046;-70
2021/08/14 00:59:14;;;;;;;11.77;7.28;;;18.70;94.20;;;;;;5094297;28;20024;-70
2021/08/14 01:01:40;;;;;;;8.77;6.82;;;18.70;94.40;;;;;;5094972;28;20020;-70
2021/08/14 01:04:07;;;;;;;10.65;6.75;;;18.70;94.40;;;;;;5094573;28;20020;-70
2021/08/14 01:06:33;;;;;;;10.45;7.20;;;18.70;94.50;;;;;;5094490;28;20024;-70
2021/08/14 01:08:59;;;;;;;13.43;7.65;;;18.60;94.50;;;;;;5094312;28;20028;-70
2021/08/14 01:11:26;;;;;;;12.77;7.32;;;18.60;94.50;;;;;;5094403;28;20097;-70
2021/08/14 01:13:52;;;;;;;12.15;7.65;;;18.60;94.50;;;;;;5094561;28;20067;-70
2021/08/14 01:16:18;;;;;;;10.30;7.45;;;18.60;94.60;;;;;;5094473;28;20073;-70
2021/08/14 01:18:46;;;;;;;9.93;7.20;;;18.60;94.60;;;;;;5093995;28;20403;-70
2021/08/14 01:21:23;;;;;;;11.68;7.63;;;18.60;94.60;;;;;;5094345;28;20099;-70
2021/08/14 01:23:52;;;;;;;12.77;7.35;;;18.60;94.70;;;;;;5094129;28;20024;-70
2021/08/14 01:26:18;;;;;;;11.60;7.88;;;18.50;94.70;;;;;;5094285;28;20024;-70
2021/08/14 01:28:44;;;;;;;12.27;8.30;;;18.50;94.70;;;;;;5093697;28;20024;-70
2021/08/14 01:31:12;;;;;;;11.73;8.60;;;18.50;94.80;;;;;;5093979;28;20419;-70
2021/08/14 01:33:39;;;;;;;11.85;8.43;;;18.40;94.90;;;;;;5094090;28;20028;-70
2021/08/14 01:36:06;;;;;;;11.77;8.25;;;18.40;95.00;;;;;;5093365;28;20016;-70
2021/08/14 01:38:32;;;;;;;11.15;8.27;;;18.40;95.10;;;;;;5093734;28;20028;-70
2021/08/14 01:40:58;;;;;;;13.00;8.50;;;18.40;95.10;;;;;;5093856;28;20065;-70
2021/08/14 01:43:23;;;;;;;11.30;8.20;;;18.40;95.10;;;;;;5093967;28;20462;-70
2021/08/14 01:45:50;;;;;;;11.82;8.55;;;18.30;95.20;;;;;;5093988;28;20024;-70
2021/08/14 01:48:16;;;;;;;12.63;9.25;;;18.30;95.20;;;;;;5094019;28;20488;-70
2021/08/14 01:50:42;;;;;;;17.08;9.52;;;18.30;95.30;;;;;;5093537;28;20364;-70
2021/08/14 01:53:08;;;;;;;15.80;9.05;;;18.30;95.30;;;;;;5093886;28;20054;-70
2021/08/14 01:55:34;;;;;;;11.93;8.77;;;18.30;95.40;;;;;;5094099;28;20478;-70
2021/08/14 01:58:01;;;;;;;14.82;9.43;;;18.30;95.40;;;;;;5093642;28;20166;-70
2021/08/14 02:00:27;;;;;;;13.05;8.85;;;18.20;95.50;;;;;;5093434;28;20012;-70
2021/08/14 02:02:52;;;;;;;12.38;8.52;;;18.20;95.60;;;;;;5093697;28;20031;-70
2021/08/14 02:05:18;;;;;;;13.02;9.23;;;18.20;95.70;;;;;;5093820;28;20021;-70
2021/08/14 02:07:44;;;;;;;21.13;9.48;;;18.20;95.70;;;;;;5093888;28;20103;-70
2021/08/14 02:10:10;;;;;;;14.15;9.55;;;18.20;95.80;;;;;;5094226;28;20050;-70
2021/08/14 02:12:36;;;;;;;12.88;8.25;;;18.20;95.80;;;;;;5093534;28;20373;-70
2021/08/14 02:15:03;;;;;;;14.50;8.38;;;18.20;95.90;;;;;;5093530;28;20077;-70
2021/08/14 02:17:29;;;;;;;11.07;8.02;;;18.20;95.90;;;;;;5093609;28;20364;-70
2021/08/14 02:19:54;;;;;;;14.20;8.32;;;18.10;95.90;;;;;;5093590;28;20025;-70
2021/08/14 02:22:20;;;;;;;11.60;8.85;;;18.20;95.90;;;;;;5093574;28;20461;-70
2021/08/14 02:24:46;;;;;;;15.02;8.95;;;18.10;95.90;;;;;;5093623;28;20475;-70
2021/08/14 02:27:11;;;;;;;16.65;9.05;;;18.20;96.00;;;;;;5093455;28;20043;-70
2021/08/14 02:29:37;;;;;;;12.85;8.70;;;18.10;96.10;;;;;;5093575;28;20028;-70
2021/08/14 02:32:03;;;;;;;12.93;8.65;;;18.10;96.20;;;;;;5093638;28;20161;-70
2021/08/14 02:34:28;;;;;;;13.73;9.00;;;18.10;96.30;;;;;;5093681;28;20379;-70
2021/08/14 02:36:54;;;;;;;12.13;8.48;;;18.10;96.40;;;;;;5093009;28;20048;-70
2021/08/14 02:39:20;;;;;;;10.93;8.77;;;18.10;96.50;;;;;;5093204;28;20528;-70
2021/08/14 02:41:45;;;;;;;13.00;8.82;;;18.10;96.50;;;;;;5093592;28;20431;-70
2021/08/14 02:44:11;;;;;;;13.70;8.90;;;18.10;96.60;;;;;;5093789;28;20024;-70
2021/08/14 02:46:37;;;;;;;12.02;9.30;;;18.10;96.70;;;;;;5093611;28;20056;-70
2021/08/14 02:49:02;;;;;;;12.48;8.88;;;18.10;96.90;;;;;;5093557;28;20090;-70
2021/08/14 02:51:28;;;;;;;13.10;8.55;;;18.10;97.00;;;;;;5093612;28;20036;-70
2021/08/14 02:53:54;;;;;;;11.63;7.97;;;18.10;97.10;;;;;;5093185;28;20453;-70
2021/08/14 02:56:19;;;;;;;12.60;9.00;;;18.20;97.30;;;;;;5093013;28;20031;-70
2021/08/14 02:58:45;;;;;;;13.57;9.30;;;18.20;97.40;;;;;;5092981;28;20417;-70
2021/08/14 03:01:11;;;;;;;11.98;9.02;;;18.20;97.50;;;;;;5093859;28;20107;-70
2021/08/14 03:03:36;;;;;;;16.20;9.55;;;18.20;97.60;;;;;;5097083;28;20028;-70
2021/08/14 03:06:02;;;;;;;14.73;9.38;;;18.20;97.60;;;;;;5096580;28;20020;-70
2021/08/14 03:08:28;;;;;;;15.23;10.15;;;18.30;97.70;;;;;;5096936;28;20032;-70
2021/08/14 03:10:53;;;;;;;15.00;9.38;;;18.30;97.80;;;;;;5096517;28;20046;-70
2021/08/14 03:13:19;;;;;;;14.00;8.65;;;18.30;97.90;;;;;;5096805;28;20106;-70
2021/08/14 03:15:45;;;;;;;14.18;9.38;;;18.40;97.90;;;;;;5096942;28;20028;-70
2021/08/14 03:18:11;;;;;;;15.48;10.10;;;18.40;98.10;;;;;;5096258;28;20032;-70
2021/08/14 03:20:37;;;;;;;14.38;10.13;;;18.40;98.00;;;;;;5096518;28;20021;-70
2021/08/14 03:23:03;;;;;;;14.48;9.43;;;18.40;98.20;;;;;;5094986;28;20020;-70
2021/08/14 03:25:28;;;;;;;13.40;9.60;;;18.50;98.30;;;;;;5095974;28;20040;-70
2021/08/14 03:27:54;;;;;;;15.05;10.18;;;18.60;98.30;;;;;;5096177;28;20093;-70
2021/08/14 03:30:20;;;;;;;14.63;9.80;;;18.60;98.40;;;;;;5096398;28;20020;-70
2021/08/14 03:32:46;;;;;;;18.08;10.02;;;18.70;98.40;;;;;;5095952;28;20462;-70
2021/08/14 03:35:14;;;;;;;14.45;9.85;;;18.70;98.40;;;;;;5096037;28;20107;-70
2021/08/14 03:37:40;;;;;;;12.95;9.68;;;18.80;98.50;;;;;;5095759;28;20385;-70
2021/08/14 03:40:07;;;;;;;15.25;10.52;;;18.90;98.50;;;;;;5095938;28;20452;-70
2021/08/14 03:42:33;;;;;;;14.73;10.30;;;19.00;98.50;;;;;;5095947;28;20024;-70
2021/08/14 03:44:58;;;;;;;14.93;10.57;;;19.10;98.50;;;;;;5095742;28;20038;-70
2021/08/14 03:47:24;;;;;;;18.00;11.20;;;19.10;98.40;;;;;;5095843;28;20020;-70
2021/08/14 03:49:50;;;;;;;15.73;10.20;;;19.20;98.40;;;;;;5095755;28;20027;-70
2021/08/14 03:52:15;;;;;;;15.02;10.07;;;19.20;98.40;;;;;;5095726;28;20032;-69
2021/08/14 03:54:46;;;;;;;12.82;9.77;;;19.20;98.40;;;;;;5095529;28;20032;-70
2021/08/14 03:57:12;;;;;;;11.50;9.38;;;19.20;98.40;;;;;;5095514;28;20020;-70
2021/08/14 03:59:38;;;;;;;15.40;9.82;;;19.30;98.30;;;;;;5095434;28;20016;-70
2021/08/14 04:02:03;;;;;;;11.38;9.13;;;19.40;98.30;;;;;;5095287;28;20382;-70
2021/08/14 04:04:29;;;;;;;14.52;10.50;;;19.40;98.20;;;;;;5096038;28;20382;-70
2021/08/14 04:06:55;;;;;;;14.27;10.13;;;19.50;98.10;;;;;;5095460;28;20024;-70
2021/08/14 04:09:20;;;;;;;14.32;10.10;;;19.60;98.10;;;;;;5095427;28;20028;-70
2021/08/14 04:11:46;;;;;;;12.85;10.00;;;19.60;98.10;;;;;;5095395;28;20031;-70
2021/08/14 04:14:11;;;;;;;17.52;12.05;;;19.60;98.20;;;;;;5093981;28;20020;-70
2021/08/14 04:16:37;;;;;;;17.77;12.38;;;19.70;98.30;;;;;;5095283;28;20119;-70
2021/08/14 04:19:03;;;;;;;15.57;11.02;;;19.80;98.10;;;;;;5095043;28;20427;-70
2021/08/14 04:21:29;;;;;;;20.33;13.32;;;19.90;98.00;;;;;;5095255;28;20063;-70
2021/08/14 04:23:55;;;;;;;18.25;12.07;;;19.90;98.00;;;;;;5095404;28;20028;-70
2021/08/14 04:26:20;;;;;;;16.45;10.57;;;20.00;97.90;;;;;;5094641;28;21795;-69
2021/08/14 04:28:46;;;;;;;13.00;9.70;;;20.00;98.00;;;;;;5094934;28;20539;-70
2021/08/14 04:31:11;;;;;;;14.77;9.73;;;20.10;98.00;;;;;;5095375;28;20477;-70
2021/08/14 04:33:37;;;;;;;13.15;9.10;;;20.10;98.00;;;;;;5095307;28;20021;-70
2021/08/14 04:36:03;;;;;;;27.70;16.70;;;20.10;98.10;;;;;;5094786;28;20060;-69
2021/08/14 04:38:29;;;;;;;16.15;10.40;;;20.10;98.10;;;;;;5095376;28;20121;-70
2021/08/14 04:40:54;;;;;;;10.52;7.72;;;20.10;98.00;;;;;;5094558;28;20020;-69
2021/08/14 04:43:20;;;;;;;12.52;6.90;;;20.20;98.00;;;;;;5095261;28;20021;-69
2021/08/14 04:45:46;;;;;;;9.48;6.82;;;20.20;97.70;;;;;;5095044;28;20051;-69
2021/08/14 04:48:11;;;;;;;8.80;6.90;;;20.30;97.40;;;;;;5094896;28;20073;-69
2021/08/14 04:50:37;;;;;;;9.80;6.13;;;20.40;97.40;;;;;;5093915;28;20082;-69
2021/08/14 04:53:03;;;;;;;10.02;5.90;;;20.40;97.10;;;;;;5093761;28;20493;-69
2021/08/14 04:55:28;;;;;;;7.22;6.00;;;20.50;96.90;;;;;;5093802;28;20052;-70
2021/08/14 04:57:54;;;;;;;11.85;6.25;;;20.50;96.90;;;;;;5092616;28;20025;-69
2021/08/14 05:00:20;;;;;;;14.18;6.32;;;20.60;96.70;;;;;;5093759;28;20032;-69
2021/08/14 05:02:46;;;;;;;6.80;5.78;;;20.70;96.40;;;;;;5093382;28;20023;-69
2021/08/14 05:05:12;;;;;;;8.43;6.00;;;20.80;96.20;;;;;;5093557;28;20034;-69
2021/08/14 05:07:37;;;;;;;7.30;6.18;;;20.90;95.80;;;;;;5093647;28;20024;-69
2021/08/14 05:10:04;;;;;;;9.65;6.60;;;20.90;95.30;;;;;;5093415;28;20094;-70
2021/08/14 05:12:30;;;;;;;9.45;6.53;;;21.00;95.50;;;;;;5094027;28;20035;-70
2021/08/14 05:14:56;;;;;;;13.10;6.32;;;21.10;95.10;;;;;;5093692;28;20063;-69
2021/08/14 05:17:21;;;;;;;10.40;6.60;;;21.20;95.10;;;;;;5093789;28;20050;-69
2021/08/14 05:19:47;;;;;;;7.15;5.40;;;21.20;95.20;;;;;;5093554;28;20052;-69
2021/08/14 05:22:13;;;;;;;7.93;6.35;;;21.30;95.10;;;;;;5093395;28;20062;-69
2021/08/14 05:24:38;;;;;;;11.13;6.30;;;21.30;94.80;;;;;;5093205;28;20044;-69
2021/08/14 05:27:05;;;;;;;9.77;6.50;;;21.40;94.80;;;;;;5093556;28;20031;-69
2021/08/14 05:29:30;;;;;;;7.43;6.13;;;21.40;95.00;;;;;;5093217;28;20035;-69
2021/08/14 05:31:56;;;;;;;8.10;6.05;;;21.50;94.60;;;;;;5093579;28;20454;-69
2021/08/14 05:34:22;;;;;;;7.15;5.25;;;21.50;94.30;;;;;;5093253;28;20456;-69
2021/08/14 05:36:47;;;;;;;8.23;5.53;;;21.60;93.90;;;;;;5093378;28;20055;-69
2021/08/14 05:39:13;;;;;;;7.75;5.82;;;21.70;93.50;;;;;;5093445;28;20032;-69
2021/08/14 05:41:41;;;;;;;8.15;5.45;;;21.70;93.30;;;;;;5093251;28;20058;-69
2021/08/14 05:44:07;;;;;;;7.28;5.30;;;21.80;92.90;;;;;;5093478;28;20024;-69
2021/08/14 05:46:33;;;;;;;6.65;4.75;;;21.80;92.70;;;;;;5093424;28;20095;-70
2021/08/14 05:48:59;;;;;;;18.27;5.10;;;21.80;92.70;;;;;;5093250;28;20130;-69
2021/08/14 05:51:25;;;;;;;12.93;5.60;;;21.90;92.60;;;;;;5093285;28;20439;-69
2021/08/14 05:53:51;;;;;;;6.38;4.88;;;21.90;92.30;;;;;;5093466;28;20043;-69
2021/08/14 05:56:16;;;;;;;8.52;6.15;;;22.00;92.00;;;;;;5093457;28;20451;-69
2021/08/14 05:58:42;;;;;;;6.65;5.50;;;22.10;92.00;;;;;;5092979;28;20032;-69
2021/08/14 06:01:08;;;;;;;9.02;6.15;;;22.10;92.00;;;;;;5093128;28;20016;-69
2021/08/14 06:03:35;;;;;;;9.10;6.05;;;22.20;91.80;;;;;;5092984;28;20070;-69
2021/08/14 06:06:01;;;;;;;6.57;5.60;;;22.30;91.70;;;;;;5092993;28;20095;-69
2021/08/14 06:08:26;;;;;;;9.18;5.35;;;22.30;91.50;;;;;;5093030;28;20036;-69
2021/08/14 06:10:52;;;;;;;9.63;5.90;;;22.30;91.60;;;;;;5092822;28;20035;-69
2021/08/14 06:13:18;;;;;;;8.13;5.20;;;22.40;91.70;;;;;;5092549;28;20115;-69
2021/08/14 06:15:43;;;;;;;7.03;5.20;;;22.50;90.80;;;;;;5092441;28;20102;-69
2021/08/14 06:18:11;;;;;;;7.32;4.65;;;22.50;90.80;;;;;;5092263;28;20111;-69
2021/08/14 06:20:37;;;;;;;6.15;4.65;;;22.50;90.80;;;;;;5091734;28;20016;-69
2021/08/14 06:23:03;;;;;;;8.43;5.32;;;22.50;90.50;;;;;;5092424;28;20370;-68
2021/08/14 06:25:28;;;;;;;6.40;5.32;;;22.60;90.50;;;;;;5092696;28;20466;-69
2021/08/14 06:27:54;;;;;;;5.88;5.18;;;22.60;90.50;;;;;;5092295;28;20020;-69
2021/08/14 06:30:19;;;;;;;7.50;5.20;;;22.60;90.50;;;;;;5092070;28;20684;-70
2021/08/14 06:32:45;;;;;;;6.82;4.90;;;22.80;88.10;;;;;;5089819;28;20024;-69
2021/08/14 06:35:11;;;;;;;5.50;4.55;;;22.70;86.90;;;;;;5092313;28;20390;-69
2021/08/14 06:37:43;;;;;;;5.57;4.32;;;22.70;87.90;;;;;;5095182;28;20055;-68
2021/08/14 06:40:13;;;;;;;6.00;4.35;;;22.70;88.40;;;;;;5094278;28;20034;-69
2021/08/14 06:42:39;;;;;;;5.40;4.10;;;22.70;88.10;;;;;;5095199;28;20073;-70
2021/08/14 06:45:06;;;;;;;6.13;4.50;;;22.70;87.60;;;;;;5096179;28;20115;-69
2021/08/14 06:47:32;;;;;;;5.32;4.55;;;22.80;86.90;;;;;;5096206;28;20016;-69
2021/08/14 06:49:58;;;;;;;5.45;4.38;;;22.90;86.90;;;;;;5096086;28;20454;-69
2021/08/14 06:52:24;;;;;;;5.72;4.55;;;22.90;85.30;;;;;;5096009;28;20016;-69
2021/08/14 06:54:49;;;;;;;5.07;4.55;;;22.90;84.30;;;;;;5096276;28;20366;-69
2021/08/14 06:57:15;;;;;;;7.03;4.30;;;23.00;83.80;;;;;;5096201;28;20024;-69
2021/08/14 06:59:40;;;;;;;6.07;4.30;;;23.00;83.40;;;;;;5096654;28;20038;-69
2021/08/14 07:02:07;;;;;;;5.07;4.57;;;22.90;84.10;;;;;;5096463;28;20103;-69
2021/08/14 07:04:34;;;;;;;6.60;4.50;;;23.00;83.50;;;;;;5096040;28;20020;-69
2021/08/14 07:06:59;;;;;;;5.13;4.47;;;23.00;83.40;;;;;;5095993;28;20031;-69
2021/08/14 07:09:25;;;;;;;5.82;4.20;;;23.10;82.70;;;;;;5096199;28;20028;-69
2021/08/14 07:11:51;;;;;;;8.52;4.15;;;23.00;83.50;;;;;;5096184;28;20032;-69
2021/08/14 07:14:17;;;;;;;6.25;4.60;;;23.00;84.20;;;;;;5096340;28;20073;-70
2021/08/14 07:16:42;;;;;;;9.73;4.80;;;23.10;83.70;;;;;;5096758;28;20069;-69
2021/08/14 07:19:08;;;;;;;5.05;4.55;;;23.00;83.30;;;;;;5096393;28;20020;-69
2021/08/14 07:21:34;;;;;;;6.32;4.40;;;23.00;83.80;;;;;;5096417;28;20020;-69
2021/08/14 07:23:59;;;;;;;4.78;4.20;;;23.10;83.60;;;;;;5095105;28;20024;-69
2021/08/14 07:26:25;;;;;;;6.68;4.45;;;23.10;83.40;;;;;;5096917;28;20073;-69
2021/08/14 07:28:51;;;;;;;5.25;4.75;;;23.10;83.50;;;;;;5096844;28;20031;-69
2021/08/14 07:31:16;;;;;;;12.02;4.93;;;23.20;82.30;;;;;;5096097;28;20024;-69
2021/08/14 07:33:42;;;;;;;4.93;4.43;;;23.20;83.10;;;;;;5096112;28;20020;-69
2021/08/14 07:36:08;;;;;;;7.25;5.40;;;23.20;83.30;;;;;;5094512;28;20043;-69
2021/08/14 07:38:35;;;;;;;8.68;5.60;;;23.30;82.80;;;;;;5096488;28;20028;-69
2021/08/14 07:41:01;;;;;;;6.00;4.57;;;23.30;82.40;;;;;;5096435;28;20145;-69
2021/08/14 07:43:26;;;;;;;7.75;4.75;;;23.40;82.00;;;;;;5095989;28;20107;-69
2021/08/14 07:45:52;;;;;;;5.30;4.68;;;23.40;81.90;;;;;;5095827;28;20016;-69
2021/08/14 07:48:18;;;;;;;5.40;4.75;;;23.40;81.90;;;;;;5095377;28;20027;-69
2021/08/14 07:50:44;;;;;;;4.75;4.25;;;23.40;82.10;;;;;;5095886;28;20035;-69
2021/08/14 07:53:09;;;;;;;6.95;5.40;;;23.50;81.60;;;;;;5095642;28;20024;-68
2021/08/14 07:55:35;;;;;;;5.28;4.78;;;23.50;81.10;;;;;;5095645;28;20028;-70
2021/08/14 07:58:08;;;;;;;5.65;4.82;;;23.60;80.90;;;;;;5095652;28;20035;-69
2021/08/14 08:00:33;;;;;;;6.43;5.05;;;23.60;80.30;;;;;;5095917;28;20020;-69
2021/08/14 08:02:59;;;;;;;6.18;5.28;;;23.70;80.00;;;;;;5095794;28;20368;-70
2021/08/14 08:05:25;;;;;;;5.10;4.13;;;23.70;79.50;;;;;;5095537;28;20467;-69
2021/08/14 08:07:51;;;;;;;9.38;5.43;;;23.70;79.60;;;;;;5096111;28;20028;-69
2021/08/14 08:10:20;;;;;;;6.05;5.20;;;23.80;78.80;;;;;;5095193;28;20031;-69
2021/08/14 08:12:46;;;;;;;8.60;5.15;;;23.80;78.30;;;;;;5095467;28;20050;-68
2021/08/14 08:15:14;;;;;;;8.75;4.80;;;23.80;78.40;;;;;;5095881;28;20028;-68
2021/08/14 08:17:40;;;;;;;6.10;4.82;;;23.80;77.90;;;;;;5095257;28;20377;-69
2021/08/14 08:20:08;;;;;;;6.05;4.43;;;23.90;78.20;;;;;;5095553;28;20359;-68
2021/08/14 08:22:34;;;;;;;5.43;4.18;;;23.90;78.30;;;;;;5095315;28;20016;-68
2021/08/14 08:25:00;;;;;;;5.25;4.40;;;23.90;78.50;;;;;;5095052;28;20016;-69
2021/08/14 08:27:26;;;;;;;5.05;4.15;;;24.00;77.50;;;;;;5095436;28;20051;-70
2021/08/14 08:29:52;;;;;;;14.27;5.10;;;24.00;77.20;;;;;;5095634;28;20377;-69
2021/08/14 08:32:18;;;;;;;7.18;4.88;;;24.00;77.00;;;;;;5094957;28;20024;-69
2021/08/14 08:34:43;;;;;;;6.60;4.72;;;24.00;76.30;;;;;;5095201;28;20020;-69
2021/08/14 08:37:09;;;;;;;6.60;4.68;;;24.10;76.60;;;;;;5094684;28;20048;-71
2021/08/14 08:39:37;;;;;;;4.32;3.75;;;24.10;76.20;;;;;;5094818;28;20035;-71
2021/08/14 08:42:03;;;;;;;5.35;4.35;;;24.30;74.20;;;;;;5095290;28;20019;-69
2021/08/14 08:44:29;;;;;;;5.03;4.35;;;24.30;74.40;;;;;;5094778;28;20027;-70
2021/08/14 08:46:54;;;;;;;11.50;9.48;;;24.30;74.60;;;;;;5094628;28;20012;-69
2021/08/14 08:49:21;;;;;;;11.75;8.02;;;24.30;72.90;;;;;;5094579;28;20053;-68
2021/08/14 08:51:47;;;;;;;6.82;5.22;;;24.30;72.60;;;;;;5094739;28;20069;-70
2021/08/14 08:54:14;;;;;;;5.15;4.10;;;24.40;72.90;;;;;;5094882;28;20035;-70
2021/08/14 08:56:40;;;;;;;6.55;4.30;;;24.50;72.10;;;;;;5094434;28;20051;-69
2021/08/14 08:59:08;;;;;;;5.15;3.72;;;24.60;71.10;;;;;;5093652;28;20125;-69
2021/08/14 09:01:34;;;;;;;4.32;3.67;;;24.60;70.60;;;;;;5094554;28;20023;-69
2021/08/14 09:04:29;;;;;;;4.85;4.10;;;24.60;69.50;;;;;;5094337;28;20024;-68
2021/08/14 09:06:57;;;;;;;5.47;4.40;;;24.70;69.80;;;;;;5089481;28;20032;-69
2021/08/14 09:09:27;;;;;;;5.03;4.10;;;24.60;70.50;;;;;;5094452;28;20020;-69
2021/08/14 09:12:03;;;;;;;4.95;4.07;;;24.70;70.40;;;;;;5094401;28;20122;-69
2021/08/14 09:14:43;;;;;;;4.25;3.83;;;24.80;70.60;;;;;;5094567;28;20028;-73
2021/08/14 09:17:09;;;;;;;4.78;3.90;;;25.00;69.60;;;;;;5094796;28;20036;-69
2021/08/14 09:19:35;;;;;;;5.03;3.75;;;25.00;68.40;;;;;;5093998;28;20035;-69
2021/08/14 09:22:15;;;;;;;5.22;4.40;;;25.00;67.80;;;;;;5094126;28;20385;-69
2021/08/14 09:24:42;;;;;;;7.82;4.60;;;25.00;67.90;;;;;;5094366;28;20020;-68
2021/08/14 09:27:11;;;;;;;5.35;4.10;;;24.90;68.10;;;;;;5094290;28;20024;-70
2021/08/14 09:29:38;;;;;;;5.33;3.93;;;25.00;66.60;;;;;;5093981;28;20052;-68
2021/08/14 09:32:08;;;;;;;4.68;3.90;;;25.00;66.40;;;;;;5094374;28;20024;-69
2021/08/14 09:34:40;;;;;;;5.03;4.00;;;25.00;66.70;;;;;;5093686;28;20563;-70
2021/08/14 09:37:08;;;;;;;5.38;4.00;;;25.00;66.30;;;;;;5092340;28;20048;-69
2021/08/14 09:39:51;;;;;;;5.35;3.80;;;25.10;65.00;;;;;;5093969;28;20043;-69
2021/08/14 09:42:17;;;;;;;5.15;4.03;;;25.10;65.50;;;;;;5093223;28;20488;-69
2021/08/14 09:44:42;;;;;;;6.15;4.03;;;25.20;65.60;;;;;;5093577;28;20028;-68
2021/08/14 09:47:34;;;;;;;9.02;5.80;;;25.10;66.40;;;;;;5093872;28;20019;-68
2021/08/14 09:50:00;;;;;;;6.35;4.90;;;25.10;65.90;;;;;;5093685;28;20458;-68
2021/08/14 09:52:27;;;;;;;5.78;3.95;;;25.10;65.60;;;;;;5094224;28;20065;-68
2021/08/14 09:54:56;;;;;;;5.63;4.07;;;25.20;65.60;;;;;;5093904;28;20024;-68
2021/08/14 09:57:23;;;;;;;5.53;3.65;;;25.30;64.20;;;;;;5092429;28;20390;-69
2021/08/14 09:59:50;;;;;;;6.82;3.70;;;25.30;65.00;;;;;;5093572;28;20054;-70
2021/08/14 10:02:21;;;;;;;4.82;3.78;;;25.40;64.50;;;;;;5093932;28;20350;-69
2021/08/14 10:04:48;;;;;;;5.25;3.60;;;25.50;63.50;;;;;;5093610;28;20053;-71
2021/08/14 10:07:15;;;;;;;5.45;3.63;;;25.50;63.90;;;;;;5093682;28;20031;-68
2021/08/14 10:09:45;;;;;;;4.00;3.50;;;25.50;63.80;;;;;;5093976;28;20020;-70
2021/08/14 10:12:13;;;;;;;4.82;3.90;;;25.50;64.30;;;;;;5097890;28;20539;-69
2021/08/14 10:14:44;;;;;;;4.80;3.70;;;25.50;64.10;;;;;;5098116;28;20039;-69
2021/08/14 10:17:11;;;;;;;5.65;3.80;;;25.60;64.60;;;;;;5097786;28;20059;-71
2021/08/14 10:19:37;;;;;;;8.48;4.05;;;25.60;64.70;;;;;;5097658;28;20492;-69
2021/08/14 10:22:05;;;;;;;5.90;4.10;;;25.70;64.20;;;;;;5097682;28;20078;-69
2021/08/14 10:24:42;;;;;;;4.40;3.55;;;25.70;63.10;;;;;;5097775;28;20433;-69
2021/08/14 10:27:09;;;;;;;3.92;3.53;;;25.70;62.50;;;;;;5097769;28;20012;-70
2021/08/14 10:30:01;;;;;;;5.40;4.32;;;25.80;62.60;;;;;;5097795;28;20402;-73
2021/08/14 10:32:47;;;;;;;7.43;4.30;;;25.90;62.30;;;;;;5094584;28;20036;-69
2021/08/14 10:35:13;;;;;;;5.75;4.25;;;25.80;62.60;;;;;;5097147;28;20424;-69
2021/08/14 10:37:43;;;;;;;4.80;4.30;;;25.80;62.80;;;;;;5096994;28;20036;-76
2021/08/14 10:40:10;;;;;;;4.28;3.60;;;25.90;62.30;;;;;;5097305;28;20470;-69
2021/08/14 10:42:54;;;;;;;11.75;6.57;;;26.00;61.90;;;;;;5097188;28;20028;-69
2021/08/14 10:45:22;;;;;;;7.05;4.30;;;26.00;62.20;;;;;;5097323;28;20020;-71
2021/08/14 10:47:50;;;;;;;4.03;3.60;;;26.10;60.80;;;;;;5097057;28;20034;-70
2021/08/14 10:50:30;;;;;;;8.20;4.03;;;26.10;60.20;;;;;;5096883;28;20516;-69
2021/08/14 10:53:11;;;;;;;4.30;3.90;;;26.10;60.60;;;;;;5097536;28;20028;-68
2021/08/14 10:55:42;;;;;;;4.53;3.50;;;26.20;60.10;;;;;;5096969;28;20024;-70
2021/08/14 10:58:23;;;;;;;8.02;4.38;;;26.10;60.50;;;;;;5097063;28;20062;-69
2021/08/14 11:01:12;;;;;;;6.38;4.15;;;26.20;60.40;;;;;;5096888;28;20020;-68
2021/08/14 11:03:38;;;;;;;4.50;4.10;;;26.20;59.30;;;;;;5094980;28;20386;-69
2021/08/14 11:06:39;;;;;;;5.80;3.85;;;26.20;59.30;;;;;;5097266;28;20024;-71
2021/08/14 11:09:17;;;;;;;14.07;11.85;;;26.40;59.80;;;;;;5034665;28;20030;-69
2021/08/14 11:12:03;;;;;;;17.27;13.55;;;26.30;59.40;;;;;;5089054;28;20040;-69
2021/08/14 11:14:39;;;;;;;11.57;8.80;;;26.30;59.60;;;;;;5096390;28;20032;-68
2021/08/14 11:17:05;;;;;;;7.05;5.20;;;26.30;59.90;;;;;;5096617;28;20028;-68
2021/08/14 11:19:42;;;;;;;7.03;4.20;;;26.40;60.20;;;;;;5096787;28;20024;-70
2021/08/14 11:22:21;;;;;;;4.70;3.90;;;26.50;58.80;;;;;;5095580;28;20421;-69
2021/08/14 11:24:48;;;;;;;6.20;3.70;;;26.60;58.50;;;;;;5096660;28;20447;-69
2021/08/14 11:27:22;;;;;;;4.13;3.58;;;26.50;58.90;;;;;;5096185;28;20253;-68
2021/08/14 11:29:53;;;;;;;6.88;4.35;;;26.50;58.30;;;;;;5096421;28;20117;-68
2021/08/14 11:32:18;;;;;;;6.05;4.13;;;26.50;58.10;;;;;;5096274;28;20028;-68
2021/08/14 11:34:44;;;;;;;4.30;3.90;;;26.50;58.20;;;;;;5096068;28;20074;-68
2021/08/14 11:37:11;;;;;;;22.25;14.40;;;26.50;58.40;;;;;;5096108;28;20439;-68
2021/08/14 11:39:37;;;;;;;20.40;13.43;;;26.60;58.00;;;;;;5096152;28;20036;-68
2021/08/14 11:42:04;;;;;;;5.78;4.60;;;26.70;58.30;;;;;;5095865;28;20016;-69
2021/08/14 11:44:32;;;;;;;3.72;3.30;;;26.80;57.50;;;;;;5096260;28;20050;-69
2021/08/14 11:47:07;;;;;;;5.20;3.97;;;26.80;57.70;;;;;;5095814;28;20460;-69
2021/08/14 11:49:55;;;;;;;3.88;3.47;;;26.90;58.00;;;;;;5095932;28;20085;-69
2021/08/14 11:52:23;;;;;;;4.47;3.55;;;27.00;58.20;;;;;;5096122;28;20355;-68
2021/08/14 11:55:05;;;;;;;4.20;3.50;;;27.10;57.80;;;;;;5095752;28;20024;-69
2021/08/14 11:57:36;;;;;;;8.27;4.15;;;27.20;57.70;;;;;;5095693;28;20106;-69
2021/08/14 12:00:19;;;;;;;6.38;4.85;;;27.30;57.40;;;;;;5095604;28;20405;-69
2021/08/14 12:02:46;;;;;;;7.05;3.90;;;27.30;57.40;;;;;;5095839;28;20027;-69
2021/08/14 12:05:12;;;;;;;5.10;3.88;;;27.40;57.70;;;;;;5095653;28;20027;-68
2021/08/14 12:07:38;;;;;;;4.57;3.50;;;27.40;56.90;;;;;;5095879;28;20393;-69
2021/08/14 12:10:04;;;;;;;4.50;3.78;;;27.50;56.80;;;;;;5095640;28;20020;-69
2021/08/14 12:12:30;;;;;;;5.13;3.50;;;27.70;57.30;;;;;;5095947;28;20016;-68
2021/08/14 12:14:56;;;;;;;4.15;3.42;;;28.60;55.70;;;;;;5095401;28;20020;-69
2021/08/14 12:17:22;;;;;;;4.20;3.47;;;30.20;54.90;;;;;;5095217;28;20077;-67
2021/08/14 12:19:49;;;;;;;5.53;3.40;;;32.40;53.80;;;;;;5095670;28;20032;-67
2021/08/14 12:22:16;;;;;;;4.95;2.88;;;34.50;51.10;;;;;;5095155;28;20466;-66
2021/08/14 12:24:46;;;;;;;5.45;3.10;;;36.20;48.60;;;;;;5094668;28;20497;-66
2021/08/14 12:27:32;;;;;;;5.20;3.58;;;37.60;47.40;;;;;;5095668;28;20493;-68
2021/08/14 12:30:19;;;;;;;4.88;3.13;;;38.60;45.20;;;;;;5095261;28;20021;-67
2021/08/14 12:32:46;;;;;;;11.77;3.80;;;39.40;44.70;;;;;;5095503;28;20031;-67
2021/08/14 12:35:20;;;;;;;4.22;3.33;;;40.10;44.10;;;;;;5094909;28;20052;-67
2021/08/14 12:37:46;;;;;;;3.88;3.42;;;41.00;43.90;;;;;;5094406;28;20119;-68
2021/08/14 12:40:16;;;;;;;4.10;3.10;;;41.80;42.40;;;;;;5094721;28;20386;-67
2021/08/14 12:42:42;;;;;;;4.38;3.10;;;42.00;41.50;;;;;;5095046;28;20103;-68
2021/08/14 12:45:26;;;;;;;3.50;3.20;;;42.30;41.00;;;;;;5095279;28;20052;-67